sensor_id;sensor_type;location;lat;lon;timestamp;P1;durP1;ratioP1;P2;durP2;ratioP2
43363;SDS011;40636;52.424;-1.948;2022-11-15T00:00:54;4.05;;;1.60;;
43363;SDS011;40636;52.424;-1.948;2022-11-15T00:03:22;2.92;;;1.65;;
43363;SDS011;40636;52.424;-1.948;2022-11-15T00:05:50;5.32;;;1.98;;
43363;SDS011;40636;52.424;-1.948;2022-11-15T00:08:17;5.40;;;1.75;;
43363;SDS011;40636;52.424;-1.948;2022-11-15T00:10:57;1.40;;;0.95;;
43363;SDS011;40636;52.424;-1.948;2022-11-15T00:13:25;2.30;;;1.50;;
43363;SDS011;40636;52.424;-1.948;2022-11-15T00:15:58;2.08;;;1.35;;
43363;SDS011;40636;52.424;-1.948;2022-11-15T00:18:26;3.35;;;0.90;;
43363;SDS011;40636;52.424;-1.948;2022-11-15T00:20:55;6.30;;;1.80;;
43363;SDS011;40636;52.424;-1.948;2022-11-15T00:23:22;3.28;;;1.25;;
43363;SDS011;40636;52.424;-1.948;2022-11-15T00:25:55;3.70;;;1.00;;
43363;SDS011;40636;52.424;-1.948;2022-11-15T00:28:23;3.22;;;1.42;;
43363;SDS011;40636;52.424;-1.948;2022-11-15T00:30:50;2.38;;;1.30;;
43363;SDS011;40636;52.424;-1.948;2022-11-15T00:33:18;5.70;;;1.08;;
43363;SDS011;40636;52.424;-1.948;2022-11-15T00:35:45;1.95;;;0.93;;
43363;SDS011;40636;52.424;-1.948;2022-11-15T00:38:12;3.58;;;1.65;;
43363;SDS011;40636;52.424;-1.948;2022-11-15T00:40:38;5.43;;;1.30;;
43363;SDS011;40636;52.424;-1.948;2022-11-15T00:43:05;3.53;;;1.42;;
43363;SDS011;40636;52.424;-1.948;2022-11-15T00:45:32;3.05;;;1.85;;
43363;SDS011;40636;52.424;-1.948;2022-11-15T00:47:59;6.43;;;1.05;;
43363;SDS011;40636;52.424;-1.948;2022-11-15T00:50:25;6.40;;;1.65;;
43363;SDS011;40636;52.424;-1.948;2022-11-15T00:52:52;1.77;;;0.93;;
43363;SDS011;40636;52.424;-1.948;2022-11-15T00:55:19;2.17;;;1.67;;
43363;SDS011;40636;52.424;-1.948;2022-11-15T00:57:46;4.50;;;1.30;;
43363;SDS011;40636;52.424;-1.948;2022-11-15T01:00:13;5.47;;;1.20;;
43363;SDS011;40636;52.424;-1.948;2022-11-15T01:02:43;1.92;;;0.80;;
43363;SDS011;40636;52.424;-1.948;2022-11-15T01:05:09;7.45;;;1.35;;
43363;SDS011;40636;52.424;-1.948;2022-11-15T01:07:36;3.17;;;1.50;;
43363;SDS011;40636;52.424;-1.948;2022-11-15T01:10:03;9.65;;;1.88;;
43363;SDS011;40636;52.424;-1.948;2022-11-15T01:12:30;3.53;;;1.45;;
43363;SDS011;40636;52.424;-1.948;2022-11-15T01:14:58;1.85;;;1.10;;
43363;SDS011;40636;52.424;-1.948;2022-11-15T01:17:25;5.65;;;1.50;;
43363;SDS011;40636;52.424;-1.948;2022-11-15T01:19:52;6.38;;;0.98;;
43363;SDS011;40636;52.424;-1.948;2022-11-15T01:22:18;8.50;;;1.77;;
43363;SDS011;40636;52.424;-1.948;2022-11-15T01:24:45;5.70;;;1.30;;
43363;SDS011;40636;52.424;-1.948;2022-11-15T01:27:12;6.22;;;1.88;;
43363;SDS011;40636;52.424;-1.948;2022-11-15T01:29:38;10.05;;;1.35;;
43363;SDS011;40636;52.424;-1.948;2022-11-15T01:32:05;5.40;;;0.98;;
43363;SDS011;40636;52.424;-1.948;2022-11-15T01:34:32;1.25;;;1.08;;
43363;SDS011;40636;52.424;-1.948;2022-11-15T01:36:58;4.90;;;1.30;;
43363;SDS011;40636;52.424;-1.948;2022-11-15T01:39:25;8.65;;;1.80;;
43363;SDS011;40636;52.424;-1.948;2022-11-15T01:41:52;7.70;;;1.55;;
43363;SDS011;40636;52.424;-1.948;2022-11-15T01:44:31;8.90;;;1.58;;
43363;SDS011;40636;52.424;-1.948;2022-11-15T01:47:28;3.00;;;1.77;;
43363;SDS011;40636;52.424;-1.948;2022-11-15T01:50:04;7.85;;;1.08;;
43363;SDS011;40636;52.424;-1.948;2022-11-15T01:52:34;2.58;;;0.93;;
43363;SDS011;40636;52.424;-1.948;2022-11-15T01:57:34;7.80;;;1.20;;
43363;SDS011;40636;52.424;-1.948;2022-11-15T02:00:02;5.30;;;1.55;;
43363;SDS011;40636;52.424;-1.948;2022-11-15T02:02:30;1.67;;;1.17;;
43363;SDS011;40636;52.424;-1.948;2022-11-15T02:04:58;6.65;;;1.20;;
43363;SDS011;40636;52.424;-1.948;2022-11-15T02:07:28;2.65;;;1.10;;
43363;SDS011;40636;52.424;-1.948;2022-11-15T02:10:01;6.80;;;0.95;;
43363;SDS011;40636;52.424;-1.948;2022-11-15T02:12:40;3.25;;;1.00;;
43363;SDS011;40636;52.424;-1.948;2022-11-15T02:15:07;3.78;;;1.10;;
43363;SDS011;40636;52.424;-1.948;2022-11-15T02:31:29;9.80;;;3.72;;
43363;SDS011;40636;52.424;-1.948;2022-11-15T02:34:04;3.33;;;0.88;;
43363;SDS011;40636;52.424;-1.948;2022-11-15T02:36:42;3.40;;;1.00;;
43363;SDS011;40636;52.424;-1.948;2022-11-15T02:39:28;4.88;;;1.25;;
43363;SDS011;40636;52.424;-1.948;2022-11-15T02:42:16;5.32;;;1.58;;
43363;SDS011;40636;52.424;-1.948;2022-11-15T02:45:07;3.95;;;0.90;;
43363;SDS011;40636;52.424;-1.948;2022-11-15T02:47:41;6.35;;;1.40;;
43363;SDS011;40636;52.424;-1.948;2022-11-15T02:50:10;8.27;;;1.52;;
43363;SDS011;40636;52.424;-1.948;2022-11-15T02:52:43;1.67;;;1.58;;
43363;SDS011;40636;52.424;-1.948;2022-11-15T02:55:28;4.72;;;1.00;;
43363;SDS011;40636;52.424;-1.948;2022-11-15T03:00:29;4.25;;;1.17;;
43363;SDS011;40636;52.424;-1.948;2022-11-15T03:05:51;7.53;;;1.20;;
43363;SDS011;40636;52.424;-1.948;2022-11-15T03:11:02;3.70;;;1.13;;
43363;SDS011;40636;52.424;-1.948;2022-11-15T03:13:43;7.25;;;1.13;;
43363;SDS011;40636;52.424;-1.948;2022-11-15T03:19:11;5.28;;;1.08;;
43363;SDS011;40636;52.424;-1.948;2022-11-15T03:22:09;6.57;;;2.13;;
43363;SDS011;40636;52.424;-1.948;2022-11-15T03:24:38;6.40;;;0.98;;
43363;SDS011;40636;52.424;-1.948;2022-11-15T03:27:07;5.15;;;1.05;;
43363;SDS011;40636;52.424;-1.948;2022-11-15T03:29:39;7.13;;;1.60;;
43363;SDS011;40636;52.424;-1.948;2022-11-15T03:32:22;5.13;;;1.63;;
43363;SDS011;40636;52.424;-1.948;2022-11-15T03:34:53;4.15;;;1.55;;
43363;SDS011;40636;52.424;-1.948;2022-11-15T03:37:27;5.30;;;1.42;;
43363;SDS011;40636;52.424;-1.948;2022-11-15T03:40:03;6.53;;;1.13;;
43363;SDS011;40636;52.424;-1.948;2022-11-15T03:42:53;9.18;;;1.40;;
43363;SDS011;40636;52.424;-1.948;2022-11-15T03:45:46;6.05;;;1.17;;
43363;SDS011;40636;52.424;-1.948;2022-11-15T03:48:24;9.75;;;1.23;;
43363;SDS011;40636;52.424;-1.948;2022-11-15T03:50:54;4.80;;;1.25;;
43363;SDS011;40636;52.424;-1.948;2022-11-15T03:53:21;3.85;;;1.48;;
43363;SDS011;40636;52.424;-1.948;2022-11-15T03:55:48;8.80;;;1.17;;
43363;SDS011;40636;52.424;-1.948;2022-11-15T03:58:15;4.28;;;1.20;;
43363;SDS011;40636;52.424;-1.948;2022-11-15T04:00:42;2.92;;;0.95;;
43363;SDS011;40636;52.424;-1.948;2022-11-15T04:03:09;6.75;;;1.85;;
43363;SDS011;40636;52.424;-1.948;2022-11-15T04:05:36;2.03;;;1.17;;
43363;SDS011;40636;52.424;-1.948;2022-11-15T04:08:02;3.10;;;1.27;;
43363;SDS011;40636;52.424;-1.948;2022-11-15T04:10:29;8.13;;;1.98;;
43363;SDS011;40636;52.424;-1.948;2022-11-15T04:12:56;4.35;;;1.27;;
43363;SDS011;40636;52.424;-1.948;2022-11-15T04:15:23;6.03;;;1.17;;
43363;SDS011;40636;52.424;-1.948;2022-11-15T04:17:51;6.75;;;1.38;;
43363;SDS011;40636;52.424;-1.948;2022-11-15T04:20:20;6.13;;;1.10;;
43363;SDS011;40636;52.424;-1.948;2022-11-15T04:23:25;4.65;;;1.67;;
43363;SDS011;40636;52.424;-1.948;2022-11-15T04:26:11;6.55;;;1.98;;
43363;SDS011;40636;52.424;-1.948;2022-11-15T04:28:42;4.65;;;1.98;;
43363;SDS011;40636;52.424;-1.948;2022-11-15T04:31:29;5.55;;;1.33;;
43363;SDS011;40636;52.424;-1.948;2022-11-15T04:33:56;4.07;;;1.48;;
43363;SDS011;40636;52.424;-1.948;2022-11-15T04:36:23;4.80;;;1.55;;
43363;SDS011;40636;52.424;-1.948;2022-11-15T04:39:08;3.20;;;1.60;;
43363;SDS011;40636;52.424;-1.948;2022-11-15T04:41:35;3.00;;;1.42;;
43363;SDS011;40636;52.424;-1.948;2022-11-15T04:44:01;4.78;;;2.15;;
43363;SDS011;40636;52.424;-1.948;2022-11-15T04:46:28;8.38;;;2.20;;
43363;SDS011;40636;52.424;-1.948;2022-11-15T04:48:55;5.70;;;1.73;;
43363;SDS011;40636;52.424;-1.948;2022-11-15T04:51:24;6.82;;;1.77;;
43363;SDS011;40636;52.424;-1.948;2022-11-15T04:53:51;3.60;;;1.55;;
43363;SDS011;40636;52.424;-1.948;2022-11-15T04:56:18;4.10;;;1.73;;
43363;SDS011;40636;52.424;-1.948;2022-11-15T04:58:44;4.32;;;1.63;;
43363;SDS011;40636;52.424;-1.948;2022-11-15T05:01:12;1.55;;;1.40;;
43363;SDS011;40636;52.424;-1.948;2022-11-15T05:03:41;2.42;;;1.45;;
43363;SDS011;40636;52.424;-1.948;2022-11-15T05:06:27;8.63;;;2.28;;
43363;SDS011;40636;52.424;-1.948;2022-11-15T05:08:54;2.65;;;1.45;;
43363;SDS011;40636;52.424;-1.948;2022-11-15T05:11:21;2.50;;;1.73;;
43363;SDS011;40636;52.424;-1.948;2022-11-15T05:13:48;5.95;;;1.65;;
43363;SDS011;40636;52.424;-1.948;2022-11-15T05:16:15;6.53;;;2.25;;
43363;SDS011;40636;52.424;-1.948;2022-11-15T05:18:42;5.53;;;1.58;;
43363;SDS011;40636;52.424;-1.948;2022-11-15T05:21:10;3.20;;;1.80;;
43363;SDS011;40636;52.424;-1.948;2022-11-15T05:23:39;3.28;;;1.65;;
43363;SDS011;40636;52.424;-1.948;2022-11-15T05:26:06;4.10;;;1.52;;
43363;SDS011;40636;52.424;-1.948;2022-11-15T05:28:34;3.58;;;1.50;;
43363;SDS011;40636;52.424;-1.948;2022-11-15T05:31:03;2.58;;;1.70;;
43363;SDS011;40636;52.424;-1.948;2022-11-15T05:33:31;3.35;;;1.80;;
43363;SDS011;40636;52.424;-1.948;2022-11-15T05:36:18;5.93;;;1.70;;
43363;SDS011;40636;52.424;-1.948;2022-11-15T05:38:48;5.15;;;1.52;;
43363;SDS011;40636;52.424;-1.948;2022-11-15T05:41:17;2.17;;;1.55;;
43363;SDS011;40636;52.424;-1.948;2022-11-15T05:43:47;5.72;;;2.20;;
43363;SDS011;40636;52.424;-1.948;2022-11-15T05:46:15;5.25;;;1.73;;
43363;SDS011;40636;52.424;-1.948;2022-11-15T05:48:44;2.75;;;1.67;;
43363;SDS011;40636;52.424;-1.948;2022-11-15T05:51:14;3.60;;;1.20;;
43363;SDS011;40636;52.424;-1.948;2022-11-15T05:53:42;5.75;;;1.67;;
43363;SDS011;40636;52.424;-1.948;2022-11-15T05:56:10;7.85;;;1.35;;
43363;SDS011;40636;52.424;-1.948;2022-11-15T05:58:38;5.80;;;1.50;;
43363;SDS011;40636;52.424;-1.948;2022-11-15T06:01:05;3.97;;;1.10;;
43363;SDS011;40636;52.424;-1.948;2022-11-15T06:03:32;4.50;;;1.40;;
43363;SDS011;40636;52.424;-1.948;2022-11-15T06:05:59;4.00;;;1.30;;
43363;SDS011;40636;52.424;-1.948;2022-11-15T06:08:26;2.67;;;1.20;;
43363;SDS011;40636;52.424;-1.948;2022-11-15T06:10:53;6.60;;;1.52;;
43363;SDS011;40636;52.424;-1.948;2022-11-15T06:13:20;1.20;;;0.88;;
43363;SDS011;40636;52.424;-1.948;2022-11-15T06:15:47;2.45;;;1.20;;
43363;SDS011;40636;52.424;-1.948;2022-11-15T06:18:14;5.15;;;2.05;;
43363;SDS011;40636;52.424;-1.948;2022-11-15T06:20:41;3.20;;;1.10;;
43363;SDS011;40636;52.424;-1.948;2022-11-15T06:23:08;0.85;;;0.80;;
43363;SDS011;40636;52.424;-1.948;2022-11-15T06:25:34;0.93;;;0.90;;
43363;SDS011;40636;52.424;-1.948;2022-11-15T06:28:01;1.05;;;0.95;;
43363;SDS011;40636;52.424;-1.948;2022-11-15T06:30:28;2.72;;;1.30;;
43363;SDS011;40636;52.424;-1.948;2022-11-15T06:32:58;1.92;;;1.15;;
43363;SDS011;40636;52.424;-1.948;2022-11-15T06:35:27;1.77;;;1.08;;
43363;SDS011;40636;52.424;-1.948;2022-11-15T06:37:54;2.25;;;1.00;;
43363;SDS011;40636;52.424;-1.948;2022-11-15T06:40:21;3.00;;;1.02;;
43363;SDS011;40636;52.424;-1.948;2022-11-15T06:42:48;1.10;;;0.80;;
43363;SDS011;40636;52.424;-1.948;2022-11-15T06:45:15;1.85;;;0.82;;
43363;SDS011;40636;52.424;-1.948;2022-11-15T06:47:45;1.15;;;0.85;;
43363;SDS011;40636;52.424;-1.948;2022-11-15T06:50:13;1.05;;;0.80;;
43363;SDS011;40636;52.424;-1.948;2022-11-15T06:52:40;1.23;;;0.93;;
43363;SDS011;40636;52.424;-1.948;2022-11-15T06:55:07;1.05;;;1.05;;
43363;SDS011;40636;52.424;-1.948;2022-11-15T06:57:34;2.03;;;0.70;;
43363;SDS011;40636;52.424;-1.948;2022-11-15T07:00:05;0.80;;;0.60;;
43363;SDS011;40636;52.424;-1.948;2022-11-15T07:02:32;1.27;;;0.63;;
43363;SDS011;40636;52.424;-1.948;2022-11-15T07:04:59;0.85;;;0.70;;
43363;SDS011;40636;52.424;-1.948;2022-11-15T07:07:25;1.60;;;0.93;;
43363;SDS011;40636;52.424;-1.948;2022-11-15T07:09:52;3.35;;;0.52;;
43363;SDS011;40636;52.424;-1.948;2022-11-15T07:12:19;1.58;;;0.60;;
43363;SDS011;40636;52.424;-1.948;2022-11-15T07:14:46;1.15;;;0.70;;
43363;SDS011;40636;52.424;-1.948;2022-11-15T07:17:12;1.95;;;0.50;;
43363;SDS011;40636;52.424;-1.948;2022-11-15T07:19:39;1.90;;;0.70;;
43363;SDS011;40636;52.424;-1.948;2022-11-15T07:22:06;3.70;;;0.80;;
43363;SDS011;40636;52.424;-1.948;2022-11-15T07:24:33;0.43;;;0.43;;
43363;SDS011;40636;52.424;-1.948;2022-11-15T07:27:00;0.50;;;0.50;;
43363;SDS011;40636;52.424;-1.948;2022-11-15T07:29:26;0.93;;;0.38;;
43363;SDS011;40636;52.424;-1.948;2022-11-15T07:31:53;0.40;;;0.40;;
43363;SDS011;40636;52.424;-1.948;2022-11-15T07:34:20;3.00;;;0.35;;
43363;SDS011;40636;52.424;-1.948;2022-11-15T07:36:47;0.50;;;0.50;;
43363;SDS011;40636;52.424;-1.948;2022-11-15T07:39:14;0.45;;;0.45;;
43363;SDS011;40636;52.424;-1.948;2022-11-15T07:41:41;3.25;;;0.70;;
43363;SDS011;40636;52.424;-1.948;2022-11-15T07:44:07;0.70;;;0.70;;
43363;SDS011;40636;52.424;-1.948;2022-11-15T07:46:35;0.45;;;0.45;;
43363;SDS011;40636;52.424;-1.948;2022-11-15T07:49:02;0.88;;;0.50;;
43363;SDS011;40636;52.424;-1.948;2022-11-15T07:51:29;0.45;;;0.40;;
43363;SDS011;40636;52.424;-1.948;2022-11-15T07:53:55;0.95;;;0.57;;
43363;SDS011;40636;52.424;-1.948;2022-11-15T07:56:22;0.55;;;0.52;;
43363;SDS011;40636;52.424;-1.948;2022-11-15T07:58:49;0.88;;;0.52;;
43363;SDS011;40636;52.424;-1.948;2022-11-15T08:01:16;1.35;;;0.40;;
43363;SDS011;40636;52.424;-1.948;2022-11-15T08:03:43;1.45;;;0.40;;
43363;SDS011;40636;52.424;-1.948;2022-11-15T08:06:10;0.50;;;0.43;;
43363;SDS011;40636;52.424;-1.948;2022-11-15T08:08:36;0.75;;;0.70;;
43363;SDS011;40636;52.424;-1.948;2022-11-15T08:11:03;0.60;;;0.60;;
43363;SDS011;40636;52.424;-1.948;2022-11-15T08:13:30;1.55;;;0.45;;
43363;SDS011;40636;52.424;-1.948;2022-11-15T08:15:58;0.40;;;0.40;;
43363;SDS011;40636;52.424;-1.948;2022-11-15T08:18:25;0.50;;;0.50;;
43363;SDS011;40636;52.424;-1.948;2022-11-15T08:21:00;0.40;;;0.40;;
43363;SDS011;40636;52.424;-1.948;2022-11-15T08:23:43;0.75;;;0.55;;
43363;SDS011;40636;52.424;-1.948;2022-11-15T08:26:10;0.70;;;0.70;;
43363;SDS011;40636;52.424;-1.948;2022-11-15T08:28:38;2.55;;;0.57;;
43363;SDS011;40636;52.424;-1.948;2022-11-15T08:31:05;2.20;;;0.50;;
43363;SDS011;40636;52.424;-1.948;2022-11-15T08:33:43;0.57;;;0.38;;
43363;SDS011;40636;52.424;-1.948;2022-11-15T08:36:12;0.60;;;0.60;;
43363;SDS011;40636;52.424;-1.948;2022-11-15T08:38:40;1.13;;;0.57;;
43363;SDS011;40636;52.424;-1.948;2022-11-15T08:41:09;1.10;;;0.60;;
43363;SDS011;40636;52.424;-1.948;2022-11-15T08:43:49;0.40;;;0.40;;
43363;SDS011;40636;52.424;-1.948;2022-11-15T08:46:16;0.88;;;0.60;;
43363;SDS011;40636;52.424;-1.948;2022-11-15T08:48:44;0.80;;;0.45;;
43363;SDS011;40636;52.424;-1.948;2022-11-15T08:51:11;0.43;;;0.40;;
43363;SDS011;40636;52.424;-1.948;2022-11-15T08:53:39;0.40;;;0.40;;
43363;SDS011;40636;52.424;-1.948;2022-11-15T08:56:07;0.70;;;0.32;;
43363;SDS011;40636;52.424;-1.948;2022-11-15T08:58:37;0.90;;;0.55;;
43363;SDS011;40636;52.424;-1.948;2022-11-15T09:01:04;0.85;;;0.40;;
43363;SDS011;40636;52.424;-1.948;2022-11-15T09:03:32;3.72;;;0.77;;
43363;SDS011;40636;52.424;-1.948;2022-11-15T09:06:00;1.45;;;0.40;;
43363;SDS011;40636;52.424;-1.948;2022-11-15T09:08:31;0.60;;;0.60;;
43363;SDS011;40636;52.424;-1.948;2022-11-15T09:11:13;0.38;;;0.38;;
43363;SDS011;40636;52.424;-1.948;2022-11-15T09:13:41;0.25;;;0.25;;
43363;SDS011;40636;52.424;-1.948;2022-11-15T09:16:08;1.20;;;0.40;;
43363;SDS011;40636;52.424;-1.948;2022-11-15T09:18:35;0.32;;;0.30;;
43363;SDS011;40636;52.424;-1.948;2022-11-15T09:21:02;0.75;;;0.60;;
43363;SDS011;40636;52.424;-1.948;2022-11-15T09:23:29;0.50;;;0.50;;
43363;SDS011;40636;52.424;-1.948;2022-11-15T09:26:00;0.35;;;0.30;;
43363;SDS011;40636;52.424;-1.948;2022-11-15T09:28:29;0.20;;;0.20;;
43363;SDS011;40636;52.424;-1.948;2022-11-15T09:30:59;0.20;;;0.20;;
43363;SDS011;40636;52.424;-1.948;2022-11-15T09:33:27;0.43;;;0.30;;
43363;SDS011;40636;52.424;-1.948;2022-11-15T09:36:14;0.63;;;0.40;;
43363;SDS011;40636;52.424;-1.948;2022-11-15T09:38:40;0.30;;;0.30;;
43363;SDS011;40636;52.424;-1.948;2022-11-15T09:41:16;0.28;;;0.20;;
43363;SDS011;40636;52.424;-1.948;2022-11-15T09:49:41;0.40;;;0.40;;
43363;SDS011;40636;52.424;-1.948;2022-11-15T09:52:08;0.50;;;0.30;;
43363;SDS011;40636;52.424;-1.948;2022-11-15T09:54:38;0.30;;;0.30;;
43363;SDS011;40636;52.424;-1.948;2022-11-15T09:57:30;0.30;;;0.30;;
43363;SDS011;40636;52.424;-1.948;2022-11-15T10:05:59;1.48;;;0.50;;
43363;SDS011;40636;52.424;-1.948;2022-11-15T10:08:40;0.30;;;0.30;;
43363;SDS011;40636;52.424;-1.948;2022-11-15T10:11:09;0.50;;;0.47;;
43363;SDS011;40636;52.424;-1.948;2022-11-15T10:14:02;0.28;;;0.28;;
43363;SDS011;40636;52.424;-1.948;2022-11-15T10:19:27;1.98;;;0.38;;
43363;SDS011;40636;52.424;-1.948;2022-11-15T10:24:28;0.28;;;0.28;;
43363;SDS011;40636;52.424;-1.948;2022-11-15T10:27:13;0.40;;;0.40;;
43363;SDS011;40636;52.424;-1.948;2022-11-15T10:29:46;0.50;;;0.50;;
43363;SDS011;40636;52.424;-1.948;2022-11-15T10:32:16;0.30;;;0.20;;
43363;SDS011;40636;52.424;-1.948;2022-11-15T10:34:44;0.40;;;0.40;;
43363;SDS011;40636;52.424;-1.948;2022-11-15T10:37:12;0.20;;;0.20;;
43363;SDS011;40636;52.424;-1.948;2022-11-15T10:39:40;1.52;;;0.60;;
43363;SDS011;40636;52.424;-1.948;2022-11-15T10:42:25;0.17;;;0.17;;
43363;SDS011;40636;52.424;-1.948;2022-11-15T10:44:54;0.80;;;0.50;;
43363;SDS011;40636;52.424;-1.948;2022-11-15T10:47:28;0.75;;;0.30;;
43363;SDS011;40636;52.424;-1.948;2022-11-15T10:50:06;0.43;;;0.28;;
43363;SDS011;40636;52.424;-1.948;2022-11-15T10:57:50;0.20;;;0.20;;
43363;SDS011;40636;52.424;-1.948;2022-11-15T11:05:26;0.40;;;0.30;;
43363;SDS011;40636;52.424;-1.948;2022-11-15T11:10:40;0.73;;;0.50;;
43363;SDS011;40636;52.424;-1.948;2022-11-15T11:18:31;0.38;;;0.38;;
43363;SDS011;40636;52.424;-1.948;2022-11-15T11:21:10;0.40;;;0.40;;
43363;SDS011;40636;52.424;-1.948;2022-11-15T11:23:52;0.40;;;0.40;;
43363;SDS011;40636;52.424;-1.948;2022-11-15T11:32:40;1.65;;;0.30;;
43363;SDS011;40636;52.424;-1.948;2022-11-15T11:35:32;0.30;;;0.30;;
43363;SDS011;40636;52.424;-1.948;2022-11-15T11:49:06;0.20;;;0.20;;
43363;SDS011;40636;52.424;-1.948;2022-11-15T11:51:54;0.20;;;0.20;;
43363;SDS011;40636;52.424;-1.948;2022-11-15T11:54:34;1.08;;;0.43;;
43363;SDS011;40636;52.424;-1.948;2022-11-15T11:57:17;0.30;;;0.30;;
43363;SDS011;40636;52.424;-1.948;2022-11-15T12:00:13;0.30;;;0.30;;
43363;SDS011;40636;52.424;-1.948;2022-11-15T12:03:07;0.30;;;0.30;;
43363;SDS011;40636;52.424;-1.948;2022-11-15T12:05:44;0.38;;;0.30;;
43363;SDS011;40636;52.424;-1.948;2022-11-15T12:11:00;0.57;;;0.57;;
43363;SDS011;40636;52.424;-1.948;2022-11-15T12:13:34;0.47;;;0.30;;
43363;SDS011;40636;52.424;-1.948;2022-11-15T12:16:14;2.13;;;0.50;;
43363;SDS011;40636;52.424;-1.948;2022-11-15T12:18:52;0.43;;;0.43;;
43363;SDS011;40636;52.424;-1.948;2022-11-15T12:21:41;1.48;;;0.40;;
43363;SDS011;40636;52.424;-1.948;2022-11-15T12:29:53;1.00;;;0.52;;
43363;SDS011;40636;52.424;-1.948;2022-11-15T12:32:28;1.02;;;0.63;;
43363;SDS011;40636;52.424;-1.948;2022-11-15T12:35:00;0.93;;;0.70;;
43363;SDS011;40636;52.424;-1.948;2022-11-15T12:42:40;2.63;;;0.70;;
43363;SDS011;40636;52.424;-1.948;2022-11-15T12:47:53;1.05;;;0.88;;
43363;SDS011;40636;52.424;-1.948;2022-11-15T12:58:57;0.82;;;0.82;;
43363;SDS011;40636;52.424;-1.948;2022-11-15T13:01:52;1.45;;;0.80;;
43363;SDS011;40636;52.424;-1.948;2022-11-15T13:06:47;1.00;;;0.80;;
43363;SDS011;40636;52.424;-1.948;2022-11-15T13:15:01;1.35;;;0.85;;
43363;SDS011;40636;52.424;-1.948;2022-11-15T13:20:20;0.95;;;0.63;;
43363;SDS011;40636;52.424;-1.948;2022-11-15T13:23:10;1.60;;;0.60;;
43363;SDS011;40636;52.424;-1.948;2022-11-15T13:31:03;1.10;;;0.95;;
43363;SDS011;40636;52.424;-1.948;2022-11-15T13:33:39;0.50;;;0.50;;
43363;SDS011;40636;52.424;-1.948;2022-11-15T13:36:07;4.28;;;0.65;;
43363;SDS011;40636;52.424;-1.948;2022-11-15T13:38:40;0.90;;;0.63;;
43363;SDS011;40636;52.424;-1.948;2022-11-15T13:41:21;0.70;;;0.60;;
43363;SDS011;40636;52.424;-1.948;2022-11-15T13:43:56;0.63;;;0.63;;
43363;SDS011;40636;52.424;-1.948;2022-11-15T13:50:51;3.38;;;0.70;;
43363;SDS011;40636;52.424;-1.948;2022-11-15T13:53:09;1.25;;;0.70;;
43363;SDS011;40636;52.424;-1.948;2022-11-15T13:55:37;2.53;;;0.80;;
43363;SDS011;40636;52.424;-1.948;2022-11-15T13:58:08;1.38;;;0.60;;
43363;SDS011;40636;52.424;-1.948;2022-11-15T14:00:44;0.47;;;0.43;;
43363;SDS011;40636;52.424;-1.948;2022-11-15T14:03:15;0.40;;;0.40;;
43363;SDS011;40636;52.424;-1.948;2022-11-15T14:11:53;4.45;;;3.90;;
43363;SDS011;40636;52.424;-1.948;2022-11-15T14:14:22;1.60;;;0.65;;
43363;SDS011;40636;52.424;-1.948;2022-11-15T14:16:52;1.95;;;0.70;;
43363;SDS011;40636;52.424;-1.948;2022-11-15T14:23:30;2.17;;;0.93;;
43363;SDS011;40636;52.424;-1.948;2022-11-15T14:25:54;2.58;;;1.17;;
43363;SDS011;40636;52.424;-1.948;2022-11-15T14:30:57;2.38;;;1.40;;
43363;SDS011;40636;52.424;-1.948;2022-11-15T14:33:29;1.83;;;0.80;;
43363;SDS011;40636;52.424;-1.948;2022-11-15T14:36:05;5.80;;;1.02;;
43363;SDS011;40636;52.424;-1.948;2022-11-15T14:38:56;2.05;;;1.48;;
43363;SDS011;40636;52.424;-1.948;2022-11-15T14:41:34;1.35;;;0.47;;
43363;SDS011;40636;52.424;-1.948;2022-11-15T14:44:06;1.90;;;0.70;;
43363;SDS011;40636;52.424;-1.948;2022-11-15T14:46:36;4.63;;;1.17;;
43363;SDS011;40636;52.424;-1.948;2022-11-15T14:49:06;4.75;;;0.73;;
43363;SDS011;40636;52.424;-1.948;2022-11-15T14:51:34;3.95;;;1.13;;
43363;SDS011;40636;52.424;-1.948;2022-11-15T14:54:01;6.03;;;1.08;;
43363;SDS011;40636;52.424;-1.948;2022-11-15T14:56:27;1.27;;;0.75;;
43363;SDS011;40636;52.424;-1.948;2022-11-15T14:58:54;0.60;;;0.60;;
43363;SDS011;40636;52.424;-1.948;2022-11-15T15:01:25;3.03;;;1.02;;
43363;SDS011;40636;52.424;-1.948;2022-11-15T15:03:55;0.98;;;0.80;;
43363;SDS011;40636;52.424;-1.948;2022-11-15T15:06:23;6.80;;;1.08;;
43363;SDS011;40636;52.424;-1.948;2022-11-15T15:08:50;1.55;;;0.60;;
43363;SDS011;40636;52.424;-1.948;2022-11-15T15:11:21;4.93;;;1.08;;
43363;SDS011;40636;52.424;-1.948;2022-11-15T15:13:57;5.63;;;1.23;;
43363;SDS011;40636;52.424;-1.948;2022-11-15T15:16:27;2.45;;;1.10;;
43363;SDS011;40636;52.424;-1.948;2022-11-15T15:18:53;1.08;;;0.70;;
43363;SDS011;40636;52.424;-1.948;2022-11-15T15:21:21;3.92;;;0.93;;
43363;SDS011;40636;52.424;-1.948;2022-11-15T15:23:50;5.75;;;2.05;;
43363;SDS011;40636;52.424;-1.948;2022-11-15T15:26:17;1.75;;;0.98;;
43363;SDS011;40636;52.424;-1.948;2022-11-15T15:28:44;2.40;;;0.80;;
43363;SDS011;40636;52.424;-1.948;2022-11-15T15:31:11;3.80;;;0.77;;
43363;SDS011;40636;52.424;-1.948;2022-11-15T15:33:38;4.60;;;0.77;;
43363;SDS011;40636;52.424;-1.948;2022-11-15T15:36:04;4.00;;;0.70;;
43363;SDS011;40636;52.424;-1.948;2022-11-15T15:38:31;3.72;;;1.17;;
43363;SDS011;40636;52.424;-1.948;2022-11-15T15:40:58;1.95;;;0.93;;
43363;SDS011;40636;52.424;-1.948;2022-11-15T15:43:28;3.50;;;1.08;;
43363;SDS011;40636;52.424;-1.948;2022-11-15T15:45:54;6.07;;;1.00;;
43363;SDS011;40636;52.424;-1.948;2022-11-15T15:48:21;5.15;;;1.20;;
43363;SDS011;40636;52.424;-1.948;2022-11-15T15:50:48;3.60;;;1.13;;
43363;SDS011;40636;52.424;-1.948;2022-11-15T15:53:15;2.65;;;1.10;;
43363;SDS011;40636;52.424;-1.948;2022-11-15T15:55:43;2.83;;;0.88;;
43363;SDS011;40636;52.424;-1.948;2022-11-15T15:58:10;1.77;;;0.98;;
43363;SDS011;40636;52.424;-1.948;2022-11-15T16:00:40;2.88;;;0.85;;
43363;SDS011;40636;52.424;-1.948;2022-11-15T16:03:07;4.65;;;1.67;;
43363;SDS011;40636;52.424;-1.948;2022-11-15T16:05:34;2.63;;;1.35;;
43363;SDS011;40636;52.424;-1.948;2022-11-15T16:08:01;2.47;;;1.00;;
43363;SDS011;40636;52.424;-1.948;2022-11-15T16:10:28;7.30;;;2.72;;
43363;SDS011;40636;52.424;-1.948;2022-11-15T16:12:57;2.22;;;1.08;;
43363;SDS011;40636;52.424;-1.948;2022-11-15T16:15:25;4.22;;;0.93;;
43363;SDS011;40636;52.424;-1.948;2022-11-15T16:17:53;2.35;;;0.90;;
43363;SDS011;40636;52.424;-1.948;2022-11-15T16:23:10;4.03;;;1.10;;
43363;SDS011;40636;52.424;-1.948;2022-11-15T16:25:48;4.45;;;1.50;;
43363;SDS011;40636;52.424;-1.948;2022-11-15T16:30:44;3.90;;;2.03;;
43363;SDS011;40636;52.424;-1.948;2022-11-15T16:33:11;3.55;;;1.40;;
43363;SDS011;40636;52.424;-1.948;2022-11-15T16:35:37;2.05;;;1.25;;
43363;SDS011;40636;52.424;-1.948;2022-11-15T16:38:04;6.30;;;1.77;;
43363;SDS011;40636;52.424;-1.948;2022-11-15T16:40:32;4.50;;;2.13;;
43363;SDS011;40636;52.424;-1.948;2022-11-15T16:43:01;3.13;;;1.30;;
43363;SDS011;40636;52.424;-1.948;2022-11-15T16:45:30;3.78;;;1.50;;
43363;SDS011;40636;52.424;-1.948;2022-11-15T16:48:04;4.13;;;1.15;;
43363;SDS011;40636;52.424;-1.948;2022-11-15T16:50:33;4.72;;;1.30;;
43363;SDS011;40636;52.424;-1.948;2022-11-15T16:53:06;4.57;;;1.98;;
43363;SDS011;40636;52.424;-1.948;2022-11-15T16:55:38;2.42;;;1.00;;
43363;SDS011;40636;52.424;-1.948;2022-11-15T16:58:07;1.67;;;1.55;;
43363;SDS011;40636;52.424;-1.948;2022-11-15T17:00:37;2.63;;;1.17;;
43363;SDS011;40636;52.424;-1.948;2022-11-15T17:03:04;3.30;;;1.10;;
43363;SDS011;40636;52.424;-1.948;2022-11-15T17:05:31;4.40;;;1.52;;
43363;SDS011;40636;52.424;-1.948;2022-11-15T17:07:58;5.18;;;2.88;;
43363;SDS011;40636;52.424;-1.948;2022-11-15T17:10:25;4.97;;;2.78;;
43363;SDS011;40636;52.424;-1.948;2022-11-15T17:12:54;4.53;;;1.45;;
43363;SDS011;40636;52.424;-1.948;2022-11-15T17:15:21;3.70;;;1.63;;
43363;SDS011;40636;52.424;-1.948;2022-11-15T17:17:50;3.08;;;1.80;;